createdAt,value
2017-12-31T00:00:36.084Z,0.00
2017-12-31T00:01:36.043Z,0.00
2017-12-31T00:02:36.004Z,0.00
2017-12-31T00:03:35.938Z,0.00
2017-12-31T00:04:35.910Z,0.00
2017-12-31T00:05:35.867Z,0.00
2017-12-31T00:06:35.835Z,0.00
2017-12-31T00:07:35.782Z,0.00
2017-12-31T00:08:35.758Z,0.00
2017-12-31T00:09:35.694Z,0.00
2017-12-31T00:10:35.668Z,0.00
2017-12-31T00:11:35.641Z,0.00
2017-12-31T00:12:35.577Z,0.00
2017-12-31T00:13:35.533Z,0.00
2017-12-31T00:14:35.503Z,0.00
2017-12-31T00:15:35.464Z,0.00
2017-12-31T00:16:35.414Z,0.00
2017-12-31T00:17:35.392Z,0.00
2017-12-31T00:18:36.302Z,0.00
2017-12-31T00:19:35.281Z,0.00
2017-12-31T00:20:35.252Z,0.00
2017-12-31T00:21:35.204Z,0.00
2017-12-31T00:22:35.169Z,0.00
2017-12-31T00:23:35.135Z,0.00
2017-12-31T00:24:35.091Z,0.00
2017-12-31T00:25:35.067Z,0.00
2017-12-31T00:26:35.066Z,0.00
2017-12-31T00:27:34.968Z,0.00
2017-12-31T00:28:34.989Z,0.00
2017-12-31T00:29:34.870Z,0.00
2017-12-31T00:30:34.835Z,0.00
2017-12-31T00:31:34.805Z,0.00
2017-12-31T00:32:34.778Z,0.00
2017-12-31T00:33:34.730Z,0.00
2017-12-31T00:34:34.689Z,0.00
2017-12-31T00:35:34.637Z,0.00
2017-12-31T00:36:34.582Z,0.00
2017-12-31T00:37:34.570Z,0.00
2017-12-31T00:38:34.542Z,0.00
2017-12-31T00:39:34.484Z,0.00
2017-12-31T00:40:34.450Z,0.00
2017-12-31T00:41:34.414Z,0.00
2017-12-31T00:42:34.358Z,0.00
2017-12-31T00:43:34.341Z,0.00
2017-12-31T00:44:34.265Z,0.00
2017-12-31T00:45:34.230Z,0.00
2017-12-31T00:46:34.185Z,0.00
2017-12-31T00:47:34.146Z,0.00
2017-12-31T00:48:34.101Z,0.00
2017-12-31T00:49:34.055Z,0.00
2017-12-31T00:50:34.041Z,0.00
2017-12-31T00:51:33.982Z,0.00
2017-12-31T00:52:33.960Z,0.00
2017-12-31T00:53:33.925Z,0.00
2017-12-31T00:54:33.879Z,0.00
2017-12-31T00:55:33.817Z,0.00
2017-12-31T00:56:33.812Z,0.00
2017-12-31T00:57:33.733Z,0.00
2017-12-31T00:58:33.715Z,0.00
2017-12-31T00:59:33.668Z,0.00
2017-12-31T01:00:33.633Z,0.00
2017-12-31T01:01:33.565Z,0.00
2017-12-31T01:02:33.534Z,0.00
2017-12-31T01:03:33.492Z,0.00
2017-12-31T01:04:33.457Z,0.00
2017-12-31T01:05:33.421Z,0.00
2017-12-31T01:06:33.378Z,0.00
2017-12-31T01:07:33.336Z,0.00
2017-12-31T01:08:33.306Z,0.00
2017-12-31T01:09:33.290Z,0.00
2017-12-31T01:10:33.227Z,0.00
2017-12-31T01:11:33.232Z,0.00
2017-12-31T01:12:33.183Z,0.00
2017-12-31T01:13:33.098Z,0.00
2017-12-31T01:14:33.044Z,0.00
2017-12-31T01:15:33.004Z,0.00
2017-12-31T01:16:32.973Z,0.00
2017-12-31T01:17:32.927Z,0.00
2017-12-31T01:18:32.914Z,0.00
2017-12-31T01:19:32.860Z,0.00
2017-12-31T01:20:32.810Z,0.00
2017-12-31T01:21:32.769Z,0.00
2017-12-31T01:22:32.756Z,0.00
2017-12-31T01:23:32.693Z,0.00
2017-12-31T01:24:32.658Z,0.00
2017-12-31T01:25:32.608Z,0.00
2017-12-31T01:26:32.591Z,0.00
2017-12-31T01:27:32.533Z,0.00
2017-12-31T01:28:32.494Z,0.00
2017-12-31T01:29:32.463Z,0.00
2017-12-31T01:30:32.432Z,0.00
2017-12-31T01:31:32.366Z,0.00
2017-12-31T01:32:32.341Z,0.00
2017-12-31T01:33:32.320Z,0.00
2017-12-31T01:34:32.261Z,0.00
2017-12-31T01:35:32.231Z,0.00
2017-12-31T01:36:32.189Z,0.00
2017-12-31T01:37:32.113Z,0.00
2017-12-31T01:38:32.101Z,0.00
2017-12-31T01:39:32.044Z,0.00
2017-12-31T01:40:31.990Z,0.00
2017-12-31T01:41:31.961Z,0.00
2017-12-31T01:42:31.925Z,0.00
2017-12-31T01:43:31.883Z,0.00
2017-12-31T01:44:31.851Z,0.00
2017-12-31T01:45:31.800Z,0.00
2017-12-31T01:46:31.760Z,0.00
2017-12-31T01:47:31.737Z,0.00
2017-12-31T01:48:31.676Z,0.00
2017-12-31T01:49:31.653Z,0.00
2017-12-31T01:50:31.620Z,0.00
2017-12-31T01:51:31.580Z,0.00
2017-12-31T01:52:31.512Z,0.00
2017-12-31T01:53:31.468Z,0.00
2017-12-31T01:54:31.436Z,0.00
2017-12-31T01:55:31.399Z,0.00
2017-12-31T01:56:31.361Z,0.00
2017-12-31T01:57:31.322Z,0.00
2017-12-31T01:58:31.283Z,0.00
2017-12-31T01:59:31.250Z,0.00
2017-12-31T02:00:31.213Z,0.00
2017-12-31T02:01:31.142Z,0.00
2017-12-31T02:02:31.108Z,0.00
2017-12-31T02:03:31.079Z,0.00
2017-12-31T02:04:31.030Z,0.00
2017-12-31T02:05:30.992Z,0.00
2017-12-31T02:06:30.939Z,0.00
2017-12-31T02:07:30.928Z,0.00
2017-12-31T02:08:30.885Z,0.00
2017-12-31T02:09:30.845Z,0.00
2017-12-31T02:10:30.794Z,0.00
2017-12-31T02:11:30.769Z,0.00
2017-12-31T02:12:30.725Z,0.00
2017-12-31T02:13:30.670Z,0.00
2017-12-31T02:14:30.635Z,0.00
2017-12-31T02:15:30.603Z,0.00
2017-12-31T02:16:30.528Z,0.00
2017-12-31T02:17:30.572Z,0.00
2017-12-31T02:18:30.444Z,0.00
2017-12-31T02:19:30.411Z,0.00
2017-12-31T02:20:30.366Z,0.00
2017-12-31T02:21:30.319Z,0.00
2017-12-31T02:22:30.299Z,0.00
2017-12-31T02:23:30.262Z,0.00
2017-12-31T02:24:30.229Z,0.00
2017-12-31T02:25:30.202Z,0.00
2017-12-31T02:26:30.124Z,0.00
2017-12-31T02:27:30.092Z,0.00
2017-12-31T02:28:30.044Z,0.00
2017-12-31T02:29:29.999Z,0.00
2017-12-31T02:30:29.973Z,0.00
2017-12-31T02:31:29.925Z,0.00
2017-12-31T02:32:29.905Z,0.00
2017-12-31T02:33:29.830Z,0.00
2017-12-31T02:34:29.800Z,0.00
2017-12-31T02:35:29.758Z,0.00
2017-12-31T02:36:29.713Z,0.00
2017-12-31T02:37:29.702Z,0.00
2017-12-31T02:38:29.637Z,0.00
2017-12-31T02:39:29.588Z,0.00
2017-12-31T02:40:29.567Z,0.00
2017-12-31T02:41:29.519Z,0.00
2017-12-31T02:42:29.558Z,0.00
2017-12-31T02:43:29.430Z,0.00
2017-12-31T02:44:29.409Z,0.00
2017-12-31T02:45:29.362Z,0.00
2017-12-31T02:46:29.320Z,0.00
2017-12-31T02:47:29.304Z,0.00
2017-12-31T02:48:29.237Z,0.00
2017-12-31T02:49:29.201Z,0.00
2017-12-31T02:50:29.159Z,0.00
2017-12-31T02:51:29.139Z,0.00
2017-12-31T02:52:29.070Z,0.00
2017-12-31T02:53:29.060Z,0.00
2017-12-31T02:54:29.011Z,0.00
2017-12-31T02:55:28.980Z,0.00
2017-12-31T02:56:28.931Z,0.00
2017-12-31T02:57:28.877Z,0.00
2017-12-31T02:58:28.849Z,0.00
2017-12-31T02:59:28.792Z,0.00
2017-12-31T03:00:28.782Z,0.00
2017-12-31T03:01:28.717Z,0.00
2017-12-31T03:02:28.665Z,0.00
2017-12-31T03:03:28.648Z,0.00
2017-12-31T03:04:28.601Z,0.00
2017-12-31T03:05:28.555Z,0.00
2017-12-31T03:06:28.514Z,0.00
2017-12-31T03:07:28.479Z,0.00
2017-12-31T03:08:28.440Z,0.00
2017-12-31T03:09:28.381Z,0.00
2017-12-31T03:10:28.387Z,0.00
2017-12-31T03:11:28.312Z,0.00
2017-12-31T03:12:28.260Z,0.00
2017-12-31T03:13:28.250Z,0.00
2017-12-31T03:14:28.174Z,0.00
2017-12-31T03:15:28.198Z,0.00
2017-12-31T03:16:28.093Z,0.00
2017-12-31T03:17:28.068Z,0.00
2017-12-31T03:18:28.010Z,0.00
2017-12-31T03:19:27.980Z,0.00
2017-12-31T03:20:27.941Z,0.00
2017-12-31T03:21:27.928Z,0.00
2017-12-31T03:22:27.860Z,0.00
2017-12-31T03:23:27.816Z,0.00
2017-12-31T03:24:27.782Z,0.00
2017-12-31T03:25:27.737Z,0.00
2017-12-31T03:26:27.694Z,0.00
2017-12-31T03:27:27.654Z,0.00
2017-12-31T03:28:27.625Z,0.00
2017-12-31T03:29:27.567Z,0.00
2017-12-31T03:30:27.548Z,0.00
2017-12-31T03:31:27.482Z,0.00
2017-12-31T03:32:27.454Z,0.00
2017-12-31T03:33:27.414Z,0.00
2017-12-31T03:34:27.408Z,0.00
2017-12-31T03:35:27.315Z,0.00
2017-12-31T03:36:27.278Z,0.00
2017-12-31T03:37:27.246Z,0.00
2017-12-31T03:38:27.217Z,0.00
2017-12-31T03:39:27.173Z,0.00
2017-12-31T03:40:27.119Z,0.00
2017-12-31T03:41:27.090Z,0.00
2017-12-31T03:42:27.035Z,0.00
2017-12-31T03:43:27.020Z,0.00
2017-12-31T03:44:26.968Z,0.00
2017-12-31T03:45:26.923Z,0.00
2017-12-31T03:46:26.887Z,0.00
2017-12-31T03:47:26.855Z,0.00
2017-12-31T03:48:26.791Z,0.00
2017-12-31T03:49:26.750Z,0.00
2017-12-31T03:50:26.760Z,0.00
2017-12-31T03:51:26.678Z,0.00
2017-12-31T03:52:26.627Z,0.00
2017-12-31T03:53:26.621Z,0.00
2017-12-31T03:54:26.604Z,0.00
2017-12-31T03:55:26.532Z,0.00
2017-12-31T03:56:26.474Z,0.00
2017-12-31T03:57:26.426Z,0.00
2017-12-31T03:58:26.399Z,0.00
2017-12-31T03:59:26.360Z,0.00
2017-12-31T04:00:26.318Z,0.00
2017-12-31T04:01:26.269Z,0.00
2017-12-31T04:02:26.230Z,0.00
2017-12-31T04:03:26.200Z,0.00
2017-12-31T04:04:26.144Z,0.00
2017-12-31T04:05:26.133Z,0.00
2017-12-31T04:06:26.069Z,0.00
2017-12-31T04:07:26.023Z,0.00
2017-12-31T04:08:25.977Z,0.00
2017-12-31T04:09:25.956Z,0.00
2017-12-31T04:10:25.913Z,0.00
2017-12-31T04:11:25.886Z,0.00
2017-12-31T04:12:25.852Z,0.00
2017-12-31T04:13:25.785Z,0.00
2017-12-31T04:14:25.765Z,0.00
2017-12-31T04:15:25.717Z,0.00
2017-12-31T04:16:25.661Z,0.00
2017-12-31T04:17:25.607Z,0.00
2017-12-31T04:18:25.579Z,0.00
2017-12-31T04:19:25.562Z,0.00
2017-12-31T04:20:25.490Z,0.00
2017-12-31T04:21:25.466Z,0.00
2017-12-31T04:22:25.414Z,0.00
2017-12-31T04:23:25.383Z,0.00
2017-12-31T04:24:25.376Z,0.00
2017-12-31T04:25:25.280Z,0.00
2017-12-31T04:26:25.318Z,0.00
2017-12-31T04:27:25.220Z,0.00
2017-12-31T04:28:25.166Z,0.00
2017-12-31T04:29:25.138Z,0.00
2017-12-31T04:30:25.100Z,0.00
2017-12-31T04:31:25.048Z,0.00
2017-12-31T04:32:24.998Z,0.00
2017-12-31T04:33:24.962Z,0.00
2017-12-31T04:34:24.920Z,0.00
2017-12-31T04:35:24.870Z,0.00
2017-12-31T04:36:24.857Z,0.00
2017-12-31T04:37:24.801Z,0.00
2017-12-31T04:38:24.774Z,0.00
2017-12-31T04:39:24.715Z,0.00
2017-12-31T04:40:24.672Z,0.00
2017-12-31T04:41:24.647Z,0.00
2017-12-31T04:42:24.587Z,0.00
2017-12-31T04:43:24.559Z,0.00
2017-12-31T04:44:24.524Z,0.00
2017-12-31T04:45:24.776Z,0.00
2017-12-31T04:46:24.465Z,0.00
2017-12-31T04:47:24.390Z,0.00
2017-12-31T04:48:24.369Z,0.00
2017-12-31T04:49:24.301Z,0.00
2017-12-31T04:50:24.261Z,0.00
2017-12-31T04:51:24.214Z,0.00
2017-12-31T04:52:24.180Z,0.00
2017-12-31T04:53:24.157Z,0.00
2017-12-31T04:54:24.132Z,0.00
2017-12-31T04:55:24.054Z,0.00
2017-12-31T04:56:24.035Z,0.00
2017-12-31T04:57:23.997Z,0.00
2017-12-31T04:58:23.951Z,0.00
2017-12-31T04:59:23.919Z,0.00
2017-12-31T05:00:23.883Z,0.00
2017-12-31T05:01:23.820Z,0.00
2017-12-31T05:02:23.784Z,0.00
2017-12-31T05:03:23.735Z,0.00
2017-12-31T05:04:23.704Z,0.00
2017-12-31T05:05:23.671Z,0.00
2017-12-31T05:06:23.622Z,0.00
2017-12-31T05:07:23.571Z,0.00
2017-12-31T05:08:23.540Z,0.00
2017-12-31T05:09:23.485Z,0.00
2017-12-31T05:10:23.475Z,0.00
2017-12-31T05:11:23.416Z,0.00
2017-12-31T05:12:23.357Z,0.00
2017-12-31T05:13:23.334Z,0.00
2017-12-31T05:14:23.274Z,0.00
2017-12-31T05:15:23.263Z,0.00
2017-12-31T05:16:23.205Z,0.00
2017-12-31T05:17:23.172Z,0.00
2017-12-31T05:18:23.129Z,0.00
2017-12-31T05:19:23.109Z,0.00
2017-12-31T05:20:23.028Z,0.00
2017-12-31T05:21:23.019Z,0.00
2017-12-31T05:22:22.963Z,0.00
2017-12-31T05:23:22.920Z,0.00
2017-12-31T05:24:22.876Z,0.00
2017-12-31T05:25:22.854Z,0.00
2017-12-31T05:26:22.814Z,0.00
2017-12-31T05:27:22.773Z,0.00
2017-12-31T05:28:22.720Z,0.00
2017-12-31T05:29:22.674Z,0.00
2017-12-31T05:30:22.643Z,0.00
2017-12-31T05:31:22.587Z,0.00
2017-12-31T05:32:22.539Z,0.00
2017-12-31T05:33:22.542Z,0.00
2017-12-31T05:34:22.460Z,0.00
2017-12-31T05:35:22.441Z,0.00
2017-12-31T05:36:22.387Z,0.00
2017-12-31T05:37:22.353Z,0.00
2017-12-31T05:38:22.311Z,0.00
2017-12-31T05:39:22.280Z,0.00
2017-12-31T05:40:22.228Z,0.00
2017-12-31T05:41:22.179Z,0.00
2017-12-31T05:42:22.133Z,0.00
2017-12-31T05:43:22.115Z,0.00
2017-12-31T05:44:22.055Z,0.00
2017-12-31T05:45:22.018Z,0.00
2017-12-31T05:46:21.981Z,0.00
2017-12-31T05:47:21.951Z,0.00
2017-12-31T05:48:21.902Z,0.00
2017-12-31T05:49:21.856Z,0.00
2017-12-31T05:50:21.866Z,0.00
2017-12-31T05:51:21.795Z,0.00
2017-12-31T05:52:21.718Z,0.00
2017-12-31T05:53:21.684Z,0.00
2017-12-31T05:54:21.647Z,0.00
2017-12-31T05:55:21.598Z,0.00
2017-12-31T05:56:21.558Z,0.00
2017-12-31T05:57:21.545Z,0.00
2017-12-31T05:58:21.473Z,0.00
2017-12-31T05:59:21.443Z,0.00
2017-12-31T06:00:21.401Z,0.00
2017-12-31T06:01:21.373Z,0.00
2017-12-31T06:02:21.343Z,0.00
2017-12-31T06:03:21.281Z,0.00
2017-12-31T06:04:21.256Z,0.00
2017-12-31T06:05:21.215Z,0.00
2017-12-31T06:06:21.141Z,0.00
2017-12-31T06:07:21.159Z,0.00
2017-12-31T06:08:21.073Z,0.00
2017-12-31T06:09:21.039Z,0.00
2017-12-31T06:10:20.978Z,0.00
2017-12-31T06:11:20.952Z,0.00
2017-12-31T06:12:20.910Z,0.00
2017-12-31T06:13:20.882Z,0.00
2017-12-31T06:14:20.839Z,0.00
2017-12-31T06:15:20.792Z,0.00
2017-12-31T06:16:20.750Z,0.00
2017-12-31T06:17:20.702Z,0.00
2017-12-31T06:18:20.659Z,0.00
2017-12-31T06:19:20.623Z,0.00
2017-12-31T06:20:20.590Z,0.00
2017-12-31T06:21:20.582Z,0.00
2017-12-31T06:22:20.497Z,0.00
2017-12-31T06:23:20.478Z,0.00
2017-12-31T06:24:20.425Z,0.00
2017-12-31T06:25:20.411Z,0.00
2017-12-31T06:26:20.355Z,0.00
2017-12-31T06:27:20.308Z,0.00
2017-12-31T06:28:20.266Z,0.00
2017-12-31T06:29:20.231Z,0.00
2017-12-31T06:30:20.184Z,0.00
2017-12-31T06:31:20.145Z,0.00
2017-12-31T06:32:20.093Z,0.00
2017-12-31T06:33:20.062Z,0.00
2017-12-31T06:34:20.044Z,0.00
2017-12-31T06:35:19.987Z,0.00
2017-12-31T06:36:19.937Z,0.00
2017-12-31T06:37:19.894Z,0.00
2017-12-31T06:38:19.843Z,0.00
2017-12-31T06:39:19.826Z,0.00
2017-12-31T06:40:19.776Z,0.00
2017-12-31T06:41:19.739Z,0.00
2017-12-31T06:42:19.674Z,0.00
2017-12-31T06:43:19.654Z,0.00
2017-12-31T06:44:19.601Z,0.00
2017-12-31T06:45:19.567Z,0.00
2017-12-31T06:46:19.543Z,0.00
2017-12-31T06:47:19.498Z,0.00
2017-12-31T06:48:19.455Z,0.00
2017-12-31T06:49:19.408Z,0.00
2017-12-31T06:50:19.385Z,0.00
2017-12-31T06:51:19.337Z,0.00
2017-12-31T06:52:19.287Z,0.00
2017-12-31T06:53:19.226Z,0.00
2017-12-31T06:54:19.226Z,0.00
2017-12-31T06:55:19.166Z,0.00
2017-12-31T06:56:19.137Z,0.00
2017-12-31T06:57:19.072Z,0.00
2017-12-31T06:58:19.047Z,0.00
2017-12-31T06:59:18.992Z,0.00
2017-12-31T07:00:18.971Z,5.63
2017-12-31T07:01:18.903Z,5.63
2017-12-31T07:02:18.875Z,5.63
2017-12-31T07:03:18.827Z,5.63
2017-12-31T07:04:18.778Z,5.63
2017-12-31T07:05:18.740Z,11.25
2017-12-31T07:06:18.716Z,11.25
2017-12-31T07:07:18.655Z,11.25
2017-12-31T07:08:18.642Z,11.25
2017-12-31T07:09:18.610Z,11.25
2017-12-31T07:10:18.547Z,11.25
2017-12-31T07:11:18.508Z,16.88
2017-12-31T07:12:18.456Z,16.88
2017-12-31T07:13:18.426Z,11.25
2017-12-31T07:14:18.378Z,11.25
2017-12-31T07:15:18.327Z,16.88
2017-12-31T07:16:18.314Z,16.88
2017-12-31T07:17:18.262Z,16.88
2017-12-31T07:18:18.207Z,16.88
2017-12-31T07:19:18.171Z,16.88
2017-12-31T07:20:18.132Z,16.88
2017-12-31T07:21:18.080Z,28.13
2017-12-31T07:22:18.059Z,33.75
2017-12-31T07:23:18.006Z,33.75
2017-12-31T07:24:17.992Z,39.38
2017-12-31T07:25:17.927Z,39.38
2017-12-31T07:26:17.895Z,45.00
2017-12-31T07:27:17.841Z,45.00
2017-12-31T07:28:17.838Z,45.00
2017-12-31T07:29:17.788Z,50.63
2017-12-31T07:30:17.724Z,50.63
2017-12-31T07:31:17.707Z,50.63
2017-12-31T07:32:17.682Z,50.63
2017-12-31T07:33:17.593Z,50.63
2017-12-31T07:34:17.579Z,56.25
2017-12-31T07:35:17.551Z,56.25
2017-12-31T07:36:17.514Z,61.88
2017-12-31T07:37:17.473Z,67.50
2017-12-31T07:38:17.429Z,67.50
2017-12-31T07:39:17.366Z,67.50
2017-12-31T07:40:17.329Z,73.13
2017-12-31T07:41:17.283Z,73.13
2017-12-31T07:42:17.269Z,78.75
2017-12-31T07:43:17.250Z,84.38
2017-12-31T07:44:17.176Z,84.38
2017-12-31T07:45:17.133Z,90.00
2017-12-31T07:46:17.087Z,101.25
2017-12-31T07:47:17.068Z,106.88
2017-12-31T07:48:17.008Z,112.50
2017-12-31T07:49:16.979Z,118.13
2017-12-31T07:50:16.911Z,106.88
2017-12-31T07:51:16.888Z,106.88
2017-12-31T07:52:16.842Z,106.88
2017-12-31T07:53:16.811Z,112.50
2017-12-31T07:54:16.765Z,112.50
2017-12-31T07:55:16.714Z,118.13
2017-12-31T07:56:16.679Z,118.13
2017-12-31T07:57:16.657Z,129.38
2017-12-31T07:58:16.615Z,140.63
2017-12-31T07:59:16.556Z,140.63
2017-12-31T08:00:16.513Z,140.63
2017-12-31T08:01:16.465Z,146.25
2017-12-31T08:02:16.436Z,146.25
2017-12-31T08:03:16.405Z,135.00
2017-12-31T08:04:16.351Z,140.63
2017-12-31T08:05:16.320Z,168.75
2017-12-31T08:06:16.301Z,185.63
2017-12-31T08:07:16.235Z,191.25
2017-12-31T08:08:16.204Z,208.13
2017-12-31T08:09:16.154Z,219.38
2017-12-31T08:10:16.117Z,236.25
2017-12-31T08:11:16.088Z,213.75
2017-12-31T08:12:16.037Z,202.50
2017-12-31T08:13:15.993Z,208.13
2017-12-31T08:14:15.951Z,196.88
2017-12-31T08:15:15.952Z,196.88
2017-12-31T08:16:15.884Z,185.63
2017-12-31T08:17:15.855Z,168.75
2017-12-31T08:18:15.796Z,180.00
2017-12-31T08:19:15.755Z,174.38
2017-12-31T08:20:15.720Z,196.88
2017-12-31T08:21:15.676Z,202.50
2017-12-31T08:22:15.651Z,236.25
2017-12-31T08:23:15.620Z,258.75
2017-12-31T08:24:15.566Z,264.38
2017-12-31T08:25:15.534Z,241.88
2017-12-31T08:26:15.500Z,264.38
2017-12-31T08:27:15.454Z,315.00
2017-12-31T08:28:15.412Z,365.63
2017-12-31T08:29:15.372Z,371.25
2017-12-31T08:30:15.324Z,337.50
2017-12-31T08:31:15.276Z,365.63
2017-12-31T08:32:15.242Z,326.25
2017-12-31T08:33:15.211Z,241.88
2017-12-31T08:34:15.175Z,202.50
2017-12-31T08:35:15.174Z,163.13
2017-12-31T08:36:15.091Z,151.88
2017-12-31T08:37:15.073Z,174.38
2017-12-31T08:38:15.029Z,174.38
2017-12-31T08:39:14.971Z,174.38
2017-12-31T08:40:14.970Z,191.25
2017-12-31T08:41:14.884Z,191.25
2017-12-31T08:42:15.059Z,230.63
2017-12-31T08:43:14.822Z,230.63
2017-12-31T08:44:14.772Z,258.75
2017-12-31T08:45:14.737Z,258.75
2017-12-31T08:46:14.704Z,275.63
2017-12-31T08:47:14.709Z,309.38
2017-12-31T08:48:14.630Z,326.25
2017-12-31T08:49:14.653Z,371.25
2017-12-31T08:50:14.559Z,427.50
2017-12-31T08:51:14.528Z,438.75
2017-12-31T08:52:14.471Z,427.50
2017-12-31T08:53:14.423Z,405.00
2017-12-31T08:54:14.404Z,376.88
2017-12-31T08:55:14.358Z,382.50
2017-12-31T08:56:14.325Z,382.50
2017-12-31T08:57:14.272Z,371.25
2017-12-31T08:58:14.234Z,376.88
2017-12-31T08:59:14.203Z,388.13
2017-12-31T09:00:14.157Z,416.25
2017-12-31T09:01:14.107Z,382.50
2017-12-31T09:02:14.066Z,371.25
2017-12-31T09:03:14.045Z,371.25
2017-12-31T09:04:14.005Z,438.75
2017-12-31T09:05:13.961Z,461.25
2017-12-31T09:06:13.929Z,472.50
2017-12-31T09:07:13.892Z,483.75
2017-12-31T09:08:13.844Z,511.88
2017-12-31T09:09:13.795Z,545.63
2017-12-31T09:10:13.767Z,523.13
2017-12-31T09:11:13.734Z,568.13
2017-12-31T09:12:13.771Z,573.75
2017-12-31T09:13:13.656Z,585.00
2017-12-31T09:14:13.627Z,579.38
2017-12-31T09:15:13.591Z,590.63
2017-12-31T09:16:13.538Z,601.88
2017-12-31T09:17:13.522Z,579.38
2017-12-31T09:18:13.473Z,585.00
2017-12-31T09:19:13.437Z,573.75
2017-12-31T09:20:13.397Z,573.75
2017-12-31T09:21:13.395Z,573.75
2017-12-31T09:22:13.318Z,641.25
2017-12-31T09:23:13.287Z,652.50
2017-12-31T09:24:13.227Z,663.75
2017-12-31T09:25:13.208Z,703.13
2017-12-31T09:26:13.162Z,776.25
2017-12-31T09:27:13.130Z,736.88
2017-12-31T09:28:13.080Z,815.63
2017-12-31T09:29:13.038Z,776.25
2017-12-31T09:30:13.008Z,703.13
2017-12-31T09:31:12.971Z,585.00
2017-12-31T09:32:12.926Z,545.63
2017-12-31T09:33:12.937Z,545.63
2017-12-31T09:34:12.849Z,545.63
2017-12-31T09:35:12.827Z,540.00
2017-12-31T09:36:12.775Z,500.63
2017-12-31T09:37:12.722Z,534.38
2017-12-31T09:38:12.701Z,551.25
2017-12-31T09:39:12.669Z,517.50
2017-12-31T09:40:12.627Z,500.63
2017-12-31T09:41:12.592Z,528.75
2017-12-31T09:42:12.548Z,506.25
2017-12-31T09:43:12.507Z,511.88
2017-12-31T09:44:12.475Z,523.13
2017-12-31T09:45:12.441Z,534.38
2017-12-31T09:46:12.392Z,607.50
2017-12-31T09:47:12.360Z,658.13
2017-12-31T09:48:12.326Z,691.88
2017-12-31T09:49:12.294Z,1226.25
2017-12-31T09:50:12.256Z,900.00
2017-12-31T09:51:12.209Z,928.13
2017-12-31T09:52:12.176Z,1372.50
2017-12-31T09:53:12.130Z,1586.25
2017-12-31T09:54:12.115Z,1108.13
2017-12-31T09:55:12.061Z,1220.63
2017-12-31T09:56:12.032Z,1676.25
2017-12-31T09:57:11.996Z,1366.88
2017-12-31T09:58:11.955Z,1125.00
2017-12-31T09:59:11.914Z,1080.00
2017-12-31T10:00:11.882Z,1726.88
2017-12-31T10:01:11.855Z,1777.50
2017-12-31T10:02:11.805Z,961.88
2017-12-31T10:03:11.776Z,1715.63
2017-12-31T10:04:11.890Z,1068.75
2017-12-31T10:05:11.695Z,1305.00
2017-12-31T10:06:11.666Z,1788.75
2017-12-31T10:07:11.638Z,1440.00
2017-12-31T10:08:11.589Z,1884.38
2017-12-31T10:09:11.547Z,2002.50
2017-12-31T10:10:11.520Z,2109.38
2017-12-31T10:11:11.520Z,1108.13
2017-12-31T10:12:11.464Z,1681.88
2017-12-31T10:13:11.464Z,1946.25
2017-12-31T10:14:11.383Z,2137.50
2017-12-31T10:15:11.405Z,1912.50
2017-12-31T10:16:11.432Z,1693.13
2017-12-31T10:17:11.307Z,1912.50
2017-12-31T10:18:11.257Z,1884.38
2017-12-31T10:19:11.245Z,1141.88
2017-12-31T10:20:11.194Z,1963.13
2017-12-31T10:21:11.172Z,1558.13
2017-12-31T10:22:11.154Z,1091.25
2017-12-31T10:23:11.111Z,1760.63
2017-12-31T10:24:11.104Z,1440.00
2017-12-31T10:25:11.061Z,2025.00
2017-12-31T10:26:11.008Z,1873.13
2017-12-31T10:27:11.169Z,1293.75
2017-12-31T10:28:10.957Z,1755.00
2017-12-31T10:29:10.923Z,1226.25
2017-12-31T10:30:10.904Z,1597.50
2017-12-31T10:31:10.855Z,1192.50
2017-12-31T10:32:10.859Z,1158.75
2017-12-31T10:33:10.807Z,1563.75
2017-12-31T10:34:10.774Z,1113.75
2017-12-31T10:35:10.752Z,1316.25
2017-12-31T10:36:10.713Z,1119.38
2017-12-31T10:37:10.702Z,961.88
2017-12-31T10:38:10.682Z,1091.25
2017-12-31T10:39:10.656Z,1288.13
2017-12-31T10:40:10.598Z,1383.75
2017-12-31T10:41:10.558Z,1080.00
2017-12-31T10:42:10.535Z,1102.50
2017-12-31T10:43:10.488Z,1186.88
2017-12-31T10:44:10.486Z,1096.88
2017-12-31T10:45:10.445Z,945.00
2017-12-31T10:46:10.407Z,1108.13
2017-12-31T10:47:10.373Z,1299.38
2017-12-31T10:48:10.336Z,1153.13
2017-12-31T10:49:10.304Z,1063.13
2017-12-31T10:50:10.285Z,1057.50
2017-12-31T10:51:10.249Z,995.63
2017-12-31T10:52:10.205Z,973.13
2017-12-31T10:53:10.213Z,1051.88
2017-12-31T10:54:10.147Z,1001.25
2017-12-31T10:55:11.546Z,1023.75
2017-12-31T10:56:10.094Z,1046.25
2017-12-31T10:57:10.052Z,1434.38
2017-12-31T10:58:10.042Z,1321.88
2017-12-31T10:59:10.004Z,1012.50
2017-12-31T11:00:09.954Z,1215.00
2017-12-31T11:01:09.918Z,1012.50
2017-12-31T11:02:09.905Z,990.00
2017-12-31T11:03:09.867Z,967.50
2017-12-31T11:04:09.833Z,950.63
2017-12-31T11:05:09.782Z,928.13
2017-12-31T11:06:09.759Z,916.88
2017-12-31T11:07:09.712Z,905.63
2017-12-31T11:08:09.680Z,905.63
2017-12-31T11:09:09.670Z,916.88
2017-12-31T11:10:09.626Z,922.50
2017-12-31T11:11:09.592Z,928.13
2017-12-31T11:12:09.565Z,933.75
2017-12-31T11:13:09.567Z,928.13
2017-12-31T11:14:09.495Z,933.75
2017-12-31T11:15:09.443Z,933.75
2017-12-31T11:16:09.417Z,928.13
2017-12-31T11:17:09.383Z,911.25
2017-12-31T11:18:09.347Z,900.00
2017-12-31T11:19:09.302Z,883.13
2017-12-31T11:20:09.275Z,871.88
2017-12-31T11:21:09.246Z,860.63
2017-12-31T11:22:09.205Z,855.00
2017-12-31T11:23:09.162Z,843.75
2017-12-31T11:24:09.147Z,843.75
2017-12-31T11:25:09.109Z,843.75
2017-12-31T11:26:09.063Z,849.38
2017-12-31T11:27:09.042Z,849.38
2017-12-31T11:28:08.995Z,855.00
2017-12-31T11:29:09.125Z,843.75
2017-12-31T11:30:08.928Z,838.13
2017-12-31T11:31:08.895Z,838.13
2017-12-31T11:32:08.878Z,826.88
2017-12-31T11:33:08.843Z,826.88
2017-12-31T11:34:08.787Z,826.88
2017-12-31T11:35:08.765Z,838.13
2017-12-31T11:36:08.704Z,838.13
2017-12-31T11:37:08.714Z,849.38
2017-12-31T11:38:08.637Z,849.38
2017-12-31T11:39:08.589Z,866.25
2017-12-31T11:40:08.566Z,855.00
2017-12-31T11:41:08.530Z,849.38
2017-12-31T11:42:08.494Z,838.13
2017-12-31T11:43:08.457Z,832.50
2017-12-31T11:44:08.427Z,826.88
2017-12-31T11:45:08.391Z,838.13
2017-12-31T11:46:08.976Z,838.13
2017-12-31T11:47:08.334Z,838.13
2017-12-31T11:48:08.285Z,849.38
2017-12-31T11:49:08.235Z,843.75
2017-12-31T11:50:08.419Z,832.50
2017-12-31T11:51:08.157Z,838.13
2017-12-31T11:52:08.159Z,849.38
2017-12-31T11:53:08.110Z,883.13
2017-12-31T11:54:08.070Z,888.75
2017-12-31T11:55:08.044Z,967.50
2017-12-31T11:56:08.007Z,1001.25
2017-12-31T11:57:08.040Z,933.75
2017-12-31T11:58:08.074Z,883.13
2017-12-31T11:59:07.869Z,877.50
2017-12-31T12:00:07.833Z,877.50
2017-12-31T12:01:07.797Z,871.88
2017-12-31T12:02:07.754Z,860.63
2017-12-31T12:03:07.735Z,860.63
2017-12-31T12:04:07.677Z,821.25
2017-12-31T12:05:07.661Z,810.00
2017-12-31T12:06:07.623Z,815.63
2017-12-31T12:07:07.589Z,821.25
2017-12-31T12:08:07.565Z,855.00
2017-12-31T12:09:07.506Z,871.88
2017-12-31T12:10:07.473Z,888.75
2017-12-31T12:11:07.447Z,871.88
2017-12-31T12:12:07.397Z,855.00
2017-12-31T12:13:07.368Z,855.00
2017-12-31T12:14:07.323Z,843.75
2017-12-31T12:15:07.294Z,838.13
2017-12-31T12:16:07.255Z,821.25
2017-12-31T12:17:07.247Z,804.38
2017-12-31T12:18:07.260Z,821.25
2017-12-31T12:19:07.147Z,804.38
2017-12-31T12:20:07.149Z,815.63
2017-12-31T12:21:07.076Z,787.50
2017-12-31T12:22:07.038Z,804.38
2017-12-31T12:23:07.017Z,810.00
2017-12-31T12:24:06.954Z,832.50
2017-12-31T12:25:06.918Z,843.75
2017-12-31T12:26:06.929Z,826.88
2017-12-31T12:27:06.853Z,815.63
2017-12-31T12:28:06.848Z,781.88
2017-12-31T12:29:06.776Z,821.25
2017-12-31T12:30:06.744Z,826.88
2017-12-31T12:31:06.740Z,860.63
2017-12-31T12:32:06.678Z,883.13
2017-12-31T12:33:06.671Z,894.38
2017-12-31T12:34:06.588Z,916.88
2017-12-31T12:35:06.571Z,950.63
2017-12-31T12:36:06.538Z,978.75
2017-12-31T12:37:06.485Z,973.13
2017-12-31T12:38:06.447Z,984.38
2017-12-31T12:39:06.426Z,995.63
2017-12-31T12:40:06.373Z,1035.00
2017-12-31T12:41:06.335Z,1074.38
2017-12-31T12:42:06.319Z,1096.88
2017-12-31T12:43:06.283Z,1068.75
2017-12-31T12:44:06.302Z,1057.50
2017-12-31T12:45:06.198Z,1035.00
2017-12-31T12:46:06.171Z,1018.13
2017-12-31T12:47:06.124Z,984.38
2017-12-31T12:48:06.091Z,973.13
2017-12-31T12:49:06.202Z,916.88
2017-12-31T12:50:06.005Z,894.38
2017-12-31T12:51:05.965Z,838.13
2017-12-31T12:52:05.946Z,815.63
2017-12-31T12:53:05.901Z,810.00
2017-12-31T12:54:05.863Z,804.38